createdAt,value
2023-04-28T00:00:40.221Z,95040.00
2023-04-28T00:01:40.491Z,95040.00
2023-04-28T00:02:40.449Z,95040.00
2023-04-28T00:03:40.544Z,95038.00
2023-04-28T00:04:40.593Z,95032.00
2023-04-28T00:05:40.471Z,95036.00
2023-04-28T00:06:40.432Z,95034.00
2023-04-28T00:07:40.527Z,95032.00
2023-04-28T00:08:40.556Z,95031.00
2023-04-28T00:09:40.553Z,95031.00
2023-04-28T00:10:40.612Z,95032.00
2023-04-28T00:11:40.667Z,95032.00
2023-04-28T00:12:41.041Z,95029.00
2023-04-28T00:13:40.704Z,95027.00
2023-04-28T00:14:40.786Z,95029.00
2023-04-28T00:15:40.796Z,95031.00
2023-04-28T00:16:41.042Z,95027.00
2023-04-28T00:17:41.000Z,95027.00
2023-04-28T00:18:40.979Z,95029.00
2023-04-28T00:19:40.978Z,95027.00
2023-04-28T00:20:41.002Z,95025.00
2023-04-28T00:21:41.001Z,95023.00
2023-04-28T00:22:41.049Z,95025.00
2023-04-28T00:23:41.098Z,95025.00
2023-04-28T00:24:41.099Z,95027.00
2023-04-28T00:25:41.172Z,95027.00
2023-04-28T00:26:41.172Z,95029.00
2023-04-28T00:27:41.246Z,95027.00
2023-04-28T00:28:41.255Z,95031.00
2023-04-28T00:29:41.306Z,95031.00
2023-04-28T00:30:41.374Z,95032.00
2023-04-28T00:31:41.425Z,95032.00
2023-04-28T00:32:41.449Z,95036.00
2023-04-28T00:33:41.500Z,95036.00
2023-04-28T00:34:41.642Z,95042.00
2023-04-28T00:35:41.545Z,95042.00
2023-04-28T00:36:41.551Z,95040.00
2023-04-28T00:37:41.618Z,95038.00
2023-04-28T00:38:41.621Z,95038.00
2023-04-28T00:39:41.668Z,95038.00
2023-04-28T00:40:41.714Z,95034.00
2023-04-28T00:41:41.744Z,95034.00
2023-04-28T00:42:41.823Z,95034.00
2023-04-28T00:43:41.861Z,95034.00
2023-04-28T00:44:41.926Z,95034.00
2023-04-28T00:45:41.942Z,95034.00
2023-04-28T00:46:41.992Z,95032.00
2023-04-28T00:47:42.020Z,95032.00
2023-04-28T00:48:42.072Z,95032.00
2023-04-28T00:49:42.109Z,95032.00
2023-04-28T00:50:42.134Z,95034.00
2023-04-28T00:51:42.180Z,95032.00
2023-04-28T00:52:42.236Z,95032.00
2023-04-28T00:53:42.549Z,95027.00
2023-04-28T00:54:42.297Z,95027.00
2023-04-28T00:55:42.362Z,95025.00
2023-04-28T00:56:42.365Z,95025.00
2023-04-28T00:57:42.418Z,95023.00
2023-04-28T00:58:42.413Z,95027.00
2023-04-28T00:59:42.491Z,95027.00
2023-04-28T01:00:42.551Z,95027.00
2023-04-28T01:01:42.672Z,95027.00
2023-04-28T01:02:42.790Z,95025.00
2023-04-28T01:03:42.790Z,95023.00
2023-04-28T01:04:42.781Z,95021.00
2023-04-28T01:05:42.772Z,95015.00
2023-04-28T01:06:42.697Z,95011.00
2023-04-28T01:07:42.770Z,95011.00
2023-04-28T01:08:42.808Z,95011.00
2023-04-28T01:09:42.814Z,95009.00
2023-04-28T01:10:42.899Z,95009.00
2023-04-28T01:11:42.867Z,95011.00
2023-04-28T01:12:42.920Z,95011.00
2023-04-28T01:13:42.924Z,95011.00
2023-04-28T01:14:42.933Z,95007.00
2023-04-28T01:15:43.022Z,95003.00
2023-04-28T01:16:43.089Z,95001.00
2023-04-28T01:17:43.028Z,95003.00
2023-04-28T01:18:43.164Z,95003.00
2023-04-28T01:19:43.160Z,95003.00
2023-04-28T01:20:43.245Z,95005.00
2023-04-28T01:21:43.184Z,95005.00
2023-04-28T01:22:43.208Z,95005.00
2023-04-28T01:23:43.307Z,95003.00
2023-04-28T01:24:43.274Z,95003.00
2023-04-28T01:25:43.332Z,95005.00
2023-04-28T01:26:43.387Z,95003.00
2023-04-28T01:27:43.335Z,95001.00
2023-04-28T01:28:43.463Z,95001.00
2023-04-28T01:29:43.433Z,95001.00
2023-04-28T01:30:43.454Z,94999.00
2023-04-28T01:31:43.536Z,94997.00
2023-04-28T01:32:43.549Z,94993.00
2023-04-28T01:33:43.535Z,94993.00
2023-04-28T01:34:43.534Z,94993.00
2023-04-28T01:35:43.545Z,94993.00
2023-04-28T01:36:43.596Z,94995.00
2023-04-28T01:37:43.614Z,94997.00
2023-04-28T01:38:43.675Z,94997.00
2023-04-28T01:39:43.708Z,94997.00
2023-04-28T01:40:43.683Z,94993.00
2023-04-28T01:41:43.659Z,94993.00
2023-04-28T01:42:43.756Z,94995.00
2023-04-28T01:43:43.766Z,94995.00
2023-04-28T01:44:43.848Z,94997.00
2023-04-28T01:45:43.795Z,94997.00
2023-04-28T01:46:44.557Z,94995.00
2023-04-28T01:47:43.920Z,94993.00
2023-04-28T01:48:43.890Z,94993.00
2023-04-28T01:49:43.889Z,94989.00
2023-04-28T01:50:43.966Z,94993.00
2023-04-28T01:51:43.932Z,94995.00
2023-04-28T01:52:43.974Z,94999.00
2023-04-28T01:53:44.033Z,94997.00
2023-04-28T01:54:44.096Z,94999.00
2023-04-28T01:55:44.037Z,94999.00
2023-04-28T01:56:44.036Z,94993.00
2023-04-28T01:57:44.134Z,94989.00
2023-04-28T01:58:44.174Z,94991.00
2023-04-28T01:59:44.658Z,94991.00
2023-04-28T02:00:44.547Z,94991.00
2023-04-28T02:01:44.251Z,94995.00
2023-04-28T02:02:44.330Z,94997.00
2023-04-28T02:03:44.479Z,94997.00
2023-04-28T02:04:44.263Z,94999.00
2023-04-28T02:05:44.302Z,95001.00
2023-04-28T02:06:44.295Z,95001.00
2023-04-28T02:07:44.320Z,95003.00
2023-04-28T02:08:44.299Z,95003.00
2023-04-28T02:09:44.324Z,95003.00
2023-04-28T02:10:44.341Z,95003.00
2023-04-28T02:11:44.368Z,95005.00
2023-04-28T02:12:44.376Z,95001.00
2023-04-28T02:13:44.374Z,94999.00
2023-04-28T02:14:44.435Z,94995.00
2023-04-28T02:15:44.500Z,94991.00
2023-04-28T02:16:44.450Z,94987.00
2023-04-28T02:17:44.532Z,94987.00
2023-04-28T02:18:44.530Z,94985.00
2023-04-28T02:19:44.502Z,94984.00
2023-04-28T02:20:44.544Z,94985.00
2023-04-28T02:21:44.609Z,94985.00
2023-04-28T02:22:44.685Z,94987.00
2023-04-28T02:23:44.734Z,94987.00
2023-04-28T02:24:44.639Z,94985.00
2023-04-28T02:25:44.666Z,94985.00
2023-04-28T02:26:44.651Z,94984.00
2023-04-28T02:27:44.655Z,94982.00
2023-04-28T02:28:44.674Z,94984.00
2023-04-28T02:29:44.749Z,94984.00
2023-04-28T02:30:44.742Z,94984.00
2023-04-28T02:31:44.826Z,94980.00
2023-04-28T02:32:44.797Z,94978.00
2023-04-28T02:33:44.785Z,94972.00
2023-04-28T02:34:44.807Z,94970.00
2023-04-28T02:35:44.819Z,94972.00
2023-04-28T02:36:44.817Z,94972.00
2023-04-28T02:37:44.934Z,94976.00
2023-04-28T02:38:44.854Z,94976.00
2023-04-28T02:39:44.822Z,94974.00
2023-04-28T02:40:44.872Z,94972.00
2023-04-28T02:41:44.862Z,94970.00
2023-04-28T02:42:44.934Z,94972.00
2023-04-28T02:43:44.974Z,94968.00
2023-04-28T02:44:45.010Z,94964.00
2023-04-28T02:45:45.005Z,94966.00
2023-04-28T02:46:45.054Z,94964.00
2023-04-28T02:47:45.097Z,94966.00
2023-04-28T02:48:45.092Z,94970.00
2023-04-28T02:49:45.092Z,94972.00
2023-04-28T02:50:45.095Z,94972.00
2023-04-28T02:51:45.127Z,94970.00
2023-04-28T02:52:46.488Z,94966.00
2023-04-28T02:53:45.283Z,94962.00
2023-04-28T02:54:45.325Z,94960.00
2023-04-28T02:55:46.065Z,94958.00
2023-04-28T02:56:45.287Z,94956.00
2023-04-28T02:57:45.391Z,94954.00
2023-04-28T02:58:45.388Z,94952.00
2023-04-28T02:59:45.394Z,94946.00
2023-04-28T03:00:45.408Z,94944.00
2023-04-28T03:01:45.491Z,94942.00
2023-04-28T03:02:45.517Z,94940.00
2023-04-28T03:03:45.624Z,94938.00
2023-04-28T03:04:45.520Z,94940.00
2023-04-28T03:05:45.514Z,94938.00
2023-04-28T03:06:45.543Z,94937.00
2023-04-28T03:07:45.543Z,94933.00
2023-04-28T03:08:45.649Z,94931.00
2023-04-28T03:09:45.576Z,94929.00
2023-04-28T03:10:45.625Z,94929.00
2023-04-28T03:11:45.598Z,94931.00
2023-04-28T03:12:45.618Z,94935.00
2023-04-28T03:13:45.690Z,94937.00
2023-04-28T03:14:45.700Z,94935.00
2023-04-28T03:15:45.717Z,94937.00
2023-04-28T03:16:45.805Z,94938.00
2023-04-28T03:17:45.856Z,94935.00
2023-04-28T03:18:45.751Z,94933.00
2023-04-28T03:19:45.767Z,94933.00
2023-04-28T03:20:45.832Z,94931.00
2023-04-28T03:21:45.849Z,94925.00
2023-04-28T03:22:46.655Z,94923.00
2023-04-28T03:23:45.875Z,94915.00
2023-04-28T03:24:45.887Z,94915.00
2023-04-28T03:25:45.900Z,94911.00
2023-04-28T03:26:45.878Z,94911.00
2023-04-28T03:27:45.910Z,94911.00
2023-04-28T03:28:45.975Z,94907.00
2023-04-28T03:29:46.009Z,94911.00
2023-04-28T03:30:46.106Z,94911.00
2023-04-28T03:31:46.027Z,94913.00
2023-04-28T03:32:46.095Z,94913.00
2023-04-28T03:33:46.032Z,94915.00
2023-04-28T03:34:46.044Z,94915.00
2023-04-28T03:35:46.031Z,94925.00
2023-04-28T03:36:46.059Z,94925.00
2023-04-28T03:37:46.064Z,94925.00
2023-04-28T03:38:46.067Z,94925.00
2023-04-28T03:39:46.100Z,94915.00
2023-04-28T03:40:46.190Z,94923.00
2023-04-28T03:41:46.206Z,94923.00
2023-04-28T03:42:46.201Z,94925.00
2023-04-28T03:43:46.230Z,94923.00
2023-04-28T03:44:46.189Z,94923.00
2023-04-28T03:45:46.273Z,94915.00
2023-04-28T03:46:46.242Z,94915.00
2023-04-28T03:47:46.314Z,94915.00
2023-04-28T03:48:46.289Z,94913.00
2023-04-28T03:49:46.341Z,94923.00
2023-04-28T03:50:46.359Z,94927.00
2023-04-28T03:51:46.361Z,94927.00
2023-04-28T03:52:46.417Z,94929.00
2023-04-28T03:53:46.394Z,94929.00
2023-04-28T03:54:46.544Z,94927.00
2023-04-28T03:55:46.488Z,94929.00
2023-04-28T03:56:46.492Z,94929.00
2023-04-28T03:57:46.584Z,94927.00
2023-04-28T03:58:46.540Z,94925.00
2023-04-28T03:59:46.603Z,94915.00
2023-04-28T04:00:46.552Z,94923.00
2023-04-28T04:01:46.654Z,94913.00
2023-04-28T04:02:46.721Z,94913.00
2023-04-28T04:03:46.874Z,94915.00
2023-04-28T04:04:46.805Z,94923.00
2023-04-28T04:05:46.771Z,94915.00
2023-04-28T04:06:46.761Z,94915.00
2023-04-28T04:07:46.716Z,94915.00
2023-04-28T04:08:46.774Z,94923.00
2023-04-28T04:09:46.812Z,94925.00
2023-04-28T04:10:46.887Z,94915.00
2023-04-28T04:11:47.006Z,94923.00
2023-04-28T04:12:46.995Z,94915.00
2023-04-28T04:13:46.940Z,94911.00
2023-04-28T04:14:46.972Z,94909.00
2023-04-28T04:15:46.995Z,94909.00
2023-04-28T04:16:47.030Z,94909.00
2023-04-28T04:17:47.116Z,94911.00
2023-04-28T04:18:47.064Z,94913.00
2023-04-28T04:19:47.088Z,94915.00
2023-04-28T04:20:47.170Z,94923.00
2023-04-28T04:21:47.171Z,94913.00
2023-04-28T04:22:47.615Z,94915.00
2023-04-28T04:23:47.204Z,94923.00
2023-04-28T04:24:47.293Z,94915.00
2023-04-28T04:25:47.307Z,94923.00
2023-04-28T04:26:47.308Z,94923.00
2023-04-28T04:27:47.416Z,94925.00
2023-04-28T04:28:47.356Z,94923.00
2023-04-28T04:29:47.361Z,94923.00
2023-04-28T04:30:47.434Z,94923.00
2023-04-28T04:31:47.544Z,94915.00
2023-04-28T04:32:47.423Z,94915.00
2023-04-28T04:33:48.092Z,94915.00
2023-04-28T04:34:47.507Z,94915.00
2023-04-28T04:35:47.512Z,94925.00
2023-04-28T04:36:47.595Z,94925.00
2023-04-28T04:37:47.613Z,94927.00
2023-04-28T04:38:47.564Z,94927.00
2023-04-28T04:39:47.709Z,94929.00
2023-04-28T04:40:47.718Z,94929.00
2023-04-28T04:41:47.685Z,94927.00
2023-04-28T04:42:48.123Z,94927.00
2023-04-28T04:43:47.746Z,94929.00
2023-04-28T04:44:47.716Z,94925.00
2023-04-28T04:45:47.868Z,94927.00
2023-04-28T04:46:47.970Z,94929.00
2023-04-28T04:47:47.930Z,94927.00
2023-04-28T04:48:47.892Z,94929.00
2023-04-28T04:49:47.906Z,94929.00
2023-04-28T04:50:47.949Z,94929.00
2023-04-28T04:51:48.002Z,94931.00
2023-04-28T04:52:48.011Z,94929.00
2023-04-28T04:53:48.019Z,94925.00
2023-04-28T04:54:48.086Z,94925.00
2023-04-28T04:55:48.147Z,94923.00
2023-04-28T04:56:48.133Z,94915.00
2023-04-28T04:57:48.222Z,94915.00
2023-04-28T04:58:48.249Z,94913.00
2023-04-28T04:59:48.222Z,94915.00
2023-04-28T05:00:48.327Z,94923.00
2023-04-28T05:01:48.396Z,94929.00
2023-04-28T05:02:48.398Z,94933.00
2023-04-28T05:03:48.435Z,94940.00
2023-04-28T05:04:48.321Z,94940.00
2023-04-28T05:05:48.247Z,94938.00
2023-04-28T05:06:48.206Z,94937.00
2023-04-28T05:07:48.213Z,94937.00
2023-04-28T05:08:48.218Z,94935.00
2023-04-28T05:09:48.218Z,94937.00
2023-04-28T05:10:48.745Z,94940.00
2023-04-28T05:11:48.239Z,94944.00
2023-04-28T05:12:49.091Z,94950.00
2023-04-28T05:13:48.158Z,94954.00
2023-04-28T05:14:48.212Z,94958.00
2023-04-28T05:16:48.800Z,94954.00
2023-04-28T05:17:48.711Z,94956.00
2023-04-28T05:18:48.653Z,94960.00
2023-04-28T05:19:48.666Z,94958.00
2023-04-28T05:20:48.666Z,94958.00
2023-04-28T05:21:48.669Z,94960.00
2023-04-28T05:22:48.619Z,94960.00
2023-04-28T05:23:48.633Z,94960.00
2023-04-28T05:24:48.598Z,94964.00
2023-04-28T05:25:48.648Z,94958.00
2023-04-28T05:26:48.646Z,94958.00
2023-04-28T05:27:48.613Z,94958.00
2023-04-28T05:28:48.631Z,94954.00
2023-04-28T05:29:48.662Z,94958.00
2023-04-28T05:30:48.671Z,94958.00
2023-04-28T05:31:48.678Z,94964.00
2023-04-28T05:32:48.733Z,94968.00
2023-04-28T05:33:48.658Z,94968.00
2023-04-28T05:34:48.552Z,94966.00
2023-04-28T05:35:48.572Z,94968.00
2023-04-28T05:36:48.956Z,94968.00
2023-04-28T05:37:48.572Z,94972.00
2023-04-28T05:38:48.546Z,94970.00
2023-04-28T05:39:48.587Z,94976.00
2023-04-28T05:40:48.550Z,94974.00
2023-04-28T05:41:48.527Z,94980.00
2023-04-28T05:42:48.502Z,94976.00
2023-04-28T05:43:48.511Z,94972.00
2023-04-28T05:44:48.572Z,94978.00
2023-04-28T05:45:48.507Z,94980.00
2023-04-28T05:46:48.577Z,94985.00
2023-04-28T05:47:48.579Z,94984.00
2023-04-28T05:48:48.487Z,94980.00
2023-04-28T05:49:48.460Z,94984.00
2023-04-28T05:50:48.512Z,94984.00
2023-04-28T05:51:48.469Z,94985.00
2023-04-28T05:52:48.411Z,94980.00
2023-04-28T05:53:48.490Z,94982.00
2023-04-28T05:54:48.494Z,94989.00
2023-04-28T05:55:49.010Z,94987.00
2023-04-28T05:56:48.542Z,94991.00
2023-04-28T05:57:53.211Z,94989.00
2023-04-28T05:58:48.661Z,94995.00
2023-04-28T05:59:48.620Z,94995.00
2023-04-28T06:00:48.878Z,94991.00
2023-04-28T06:01:48.708Z,94997.00
2023-04-28T06:02:48.678Z,94995.00
2023-04-28T06:03:48.931Z,94997.00
2023-04-28T06:04:48.789Z,94999.00
2023-04-28T06:05:48.661Z,95001.00
2023-04-28T06:06:48.576Z,94999.00
2023-04-28T06:07:50.085Z,94997.00
2023-04-28T06:08:48.586Z,95001.00
2023-04-28T06:09:48.555Z,95001.00
2023-04-28T06:10:48.709Z,95001.00
2023-04-28T06:11:48.914Z,95009.00
2023-04-28T06:12:48.507Z,95013.00
2023-04-28T06:13:48.514Z,95011.00
2023-04-28T06:14:48.542Z,95015.00
2023-04-28T06:15:48.514Z,95017.00
2023-04-28T06:16:48.477Z,95017.00
2023-04-28T06:17:48.537Z,95019.00
2023-04-28T06:18:49.725Z,95021.00
2023-04-28T06:19:48.562Z,95021.00
2023-04-28T06:20:49.438Z,95023.00
2023-04-28T06:21:48.574Z,95027.00
2023-04-28T06:22:48.628Z,95023.00
2023-04-28T06:23:48.675Z,95027.00
2023-04-28T06:24:48.699Z,95029.00
2023-04-28T06:25:48.708Z,95029.00
2023-04-28T06:26:48.912Z,95032.00
2023-04-28T06:27:48.921Z,95032.00
2023-04-28T06:28:48.765Z,95036.00
2023-04-28T06:29:48.806Z,95038.00
2023-04-28T06:30:48.802Z,95036.00
2023-04-28T06:31:48.953Z,95040.00
2023-04-28T06:32:48.961Z,95040.00
2023-04-28T06:33:48.869Z,95038.00
2023-04-28T06:34:48.860Z,95038.00
2023-04-28T06:35:48.913Z,95040.00
2023-04-28T06:36:49.451Z,95040.00
2023-04-28T06:37:48.949Z,95042.00
2023-04-28T06:38:49.011Z,95038.00
2023-04-28T06:39:49.075Z,95040.00
2023-04-28T06:40:49.128Z,95044.00
2023-04-28T06:41:49.417Z,95044.00
2023-04-28T06:42:49.099Z,95044.00
2023-04-28T06:43:49.178Z,95044.00
2023-04-28T06:44:49.291Z,95044.00
2023-04-28T06:45:49.613Z,95044.00
2023-04-28T06:46:49.264Z,95042.00
2023-04-28T06:47:49.452Z,95042.00
2023-04-28T06:48:49.546Z,95044.00
2023-04-28T06:49:49.329Z,95044.00
2023-04-28T06:50:49.330Z,95044.00
2023-04-28T06:51:49.449Z,95046.00
2023-04-28T06:52:49.450Z,95044.00
2023-04-28T06:53:49.470Z,95044.00
2023-04-28T06:54:49.573Z,95046.00
2023-04-28T06:55:49.581Z,95044.00
2023-04-28T06:56:49.589Z,95046.00
2023-04-28T06:57:49.695Z,95046.00
2023-04-28T06:58:49.642Z,95050.00
2023-04-28T06:59:50.028Z,95048.00
2023-04-28T07:00:49.760Z,95048.00
2023-04-28T07:01:49.723Z,95046.00
2023-04-28T07:02:49.942Z,95046.00
2023-04-28T07:03:49.847Z,95042.00
2023-04-28T07:04:49.786Z,95042.00
2023-04-28T07:05:49.850Z,95042.00
2023-04-28T07:06:49.969Z,95042.00
2023-04-28T07:07:49.970Z,95044.00
2023-04-28T07:08:49.884Z,95042.00
2023-04-28T07:09:49.908Z,95040.00
2023-04-28T07:10:50.001Z,95044.00
2023-04-28T07:11:50.022Z,95036.00
2023-04-28T07:12:50.038Z,95038.00
2023-04-28T07:13:50.031Z,95036.00
2023-04-28T07:14:50.033Z,95038.00
2023-04-28T07:15:50.069Z,95044.00
2023-04-28T07:16:50.109Z,95042.00
2023-04-28T07:17:50.163Z,95038.00
2023-04-28T07:18:50.155Z,95040.00
2023-04-28T07:19:50.152Z,95040.00
2023-04-28T07:20:50.150Z,95038.00
2023-04-28T07:21:50.204Z,95042.00
2023-04-28T07:22:50.228Z,95040.00
2023-04-28T07:23:50.427Z,95042.00
2023-04-28T07:24:50.230Z,95038.00
2023-04-28T07:25:50.227Z,95036.00
2023-04-28T07:26:50.256Z,95034.00
2023-04-28T07:27:50.323Z,95032.00
2023-04-28T07:28:50.325Z,95034.00
2023-04-28T07:29:50.335Z,95032.00
2023-04-28T07:30:50.378Z,95029.00
2023-04-28T07:31:50.429Z,95032.00
2023-04-28T07:32:50.483Z,95032.00
2023-04-28T07:33:50.386Z,95038.00
2023-04-28T07:34:50.448Z,95040.00
2023-04-28T07:35:50.422Z,95044.00
2023-04-28T07:36:50.517Z,95042.00
2023-04-28T07:37:50.500Z,95034.00
2023-04-28T07:38:50.494Z,95040.00
2023-04-28T07:39:50.605Z,95040.00
2023-04-28T07:41:50.653Z,95038.00
2023-04-28T07:42:50.620Z,95040.00
2023-04-28T07:43:50.573Z,95036.00
2023-04-28T07:44:50.745Z,95034.00
2023-04-28T07:45:50.679Z,95038.00
2023-04-28T07:46:52.150Z,95042.00
2023-04-28T07:47:50.765Z,95044.00
2023-04-28T07:48:50.759Z,95048.00
2023-04-28T07:49:50.808Z,95050.00
2023-04-28T07:50:50.818Z,95050.00
2023-04-28T07:51:50.905Z,95054.00
2023-04-28T07:52:50.877Z,95058.00
2023-04-28T07:53:50.828Z,95056.00
2023-04-28T07:54:50.937Z,95052.00
2023-04-28T07:55:50.960Z,95052.00
2023-04-28T07:56:50.949Z,95046.00
2023-04-28T07:57:51.023Z,95044.00
2023-04-28T07:58:51.037Z,95046.00
2023-04-28T07:59:51.029Z,95050.00
2023-04-28T08:00:51.079Z,95052.00
2023-04-28T08:01:51.098Z,95052.00
2023-04-28T08:02:51.368Z,95054.00
2023-04-28T08:03:51.368Z,95052.00
2023-04-28T08:04:51.467Z,95050.00
2023-04-28T08:05:51.235Z,95048.00
2023-04-28T08:06:51.189Z,95048.00
2023-04-28T08:07:51.234Z,95044.00
2023-04-28T08:08:51.418Z,95050.00
2023-04-28T08:09:53.220Z,95052.00
2023-04-28T08:10:51.367Z,95050.00
2023-04-28T08:11:51.333Z,95050.00
2023-04-28T08:12:51.329Z,95050.00
2023-04-28T08:13:51.435Z,95052.00
2023-04-28T08:14:51.399Z,95052.00
2023-04-28T08:15:51.588Z,95052.00
2023-04-28T08:16:51.457Z,95054.00
2023-04-28T08:17:51.475Z,95054.00
2023-04-28T08:18:51.491Z,95056.00
2023-04-28T08:19:51.551Z,95056.00
2023-04-28T08:20:51.610Z,95058.00
2023-04-28T08:21:51.942Z,95056.00
2023-04-28T08:22:51.673Z,95062.00
2023-04-28T08:23:52.162Z,95060.00
2023-04-28T08:24:51.661Z,95062.00
2023-04-28T08:25:51.738Z,95068.00
2023-04-28T08:26:51.745Z,95064.00
2023-04-28T08:27:52.019Z,95068.00
2023-04-28T08:28:51.682Z,95062.00
2023-04-28T08:29:51.815Z,95064.00
2023-04-28T08:30:51.867Z,95062.00
2023-04-28T08:31:51.823Z,95062.00
2023-04-28T08:32:51.909Z,95066.00
2023-04-28T08:33:52.954Z,95068.00
2023-04-28T08:34:51.944Z,95066.00
2023-04-28T08:35:52.094Z,95066.00
2023-04-28T08:36:52.528Z,95068.00
2023-04-28T08:37:51.949Z,95066.00
2023-04-28T08:38:52.005Z,95064.00
2023-04-28T08:39:53.018Z,95064.00
2023-04-28T08:40:52.065Z,95062.00
2023-04-28T08:41:52.123Z,95064.00
2023-04-28T08:42:52.148Z,95064.00
2023-04-28T08:43:52.163Z,95064.00
2023-04-28T08:44:52.171Z,95068.00
2023-04-28T08:45:52.229Z,95062.00
2023-04-28T08:46:52.264Z,95068.00
2023-04-28T08:47:52.446Z,95068.00
2023-04-28T08:48:52.211Z,95064.00
2023-04-28T08:49:52.199Z,95064.00
2023-04-28T08:50:53.952Z,95064.00
2023-04-28T08:51:52.318Z,95062.00
2023-04-28T08:52:53.974Z,95064.00
2023-04-28T08:54:11.794Z,95060.00
2023-04-28T08:54:53.991Z,95064.00
2023-04-28T08:55:52.996Z,95066.00
2023-04-28T08:56:52.546Z,95064.00
2023-04-28T08:57:52.520Z,95062.00
2023-04-28T08:58:52.262Z,95064.00
2023-04-28T08:59:52.304Z,95060.00
2023-04-28T09:00:52.272Z,95064.00
2023-04-28T09:01:52.345Z,95066.00
2023-04-28T09:02:52.391Z,95066.00
2023-04-28T09:03:52.365Z,95064.00
2023-04-28T09:04:52.486Z,95066.00
2023-04-28T09:05:52.367Z,95068.00
2023-04-28T09:06:52.436Z,95064.00
2023-04-28T09:07:52.440Z,95062.00
2023-04-28T09:08:52.468Z,95064.00
2023-04-28T09:09:52.443Z,95062.00
2023-04-28T09:10:52.549Z,95062.00
2023-04-28T09:11:52.566Z,95066.00
2023-04-28T09:12:52.670Z,95066.00
2023-04-28T09:13:52.776Z,95066.00
2023-04-28T09:14:52.677Z,95070.00
2023-04-28T09:15:52.688Z,95070.00
2023-04-28T09:16:52.809Z,95068.00
2023-04-28T09:17:52.868Z,95066.00
2023-04-28T09:18:52.814Z,95068.00
2023-04-28T09:19:52.872Z,95066.00
2023-04-28T09:20:52.923Z,95068.00
2023-04-28T09:21:52.989Z,95066.00
2023-04-28T09:22:53.004Z,95064.00
2023-04-28T09:23:53.018Z,95060.00
2023-04-28T09:24:53.103Z,95064.00
2023-04-28T09:25:54.117Z,95062.00
2023-04-28T09:26:55.628Z,95058.00
2023-04-28T09:27:53.281Z,95060.00
2023-04-28T09:28:53.090Z,95058.00
2023-04-28T09:29:53.111Z,95058.00
2023-04-28T09:30:55.408Z,95056.00
2023-04-28T09:31:53.461Z,95056.00
2023-04-28T09:32:53.531Z,95058.00
2023-04-28T09:33:53.142Z,95056.00
2023-04-28T09:34:53.090Z,95054.00
2023-04-28T09:35:53.198Z,95054.00
2023-04-28T09:36:53.282Z,95052.00
2023-04-28T09:37:53.315Z,95056.00
2023-04-28T09:38:54.602Z,95058.00
2023-04-28T09:39:53.305Z,95056.00
2023-04-28T09:40:53.337Z,95056.00
2023-04-28T09:41:53.378Z,95060.00
2023-04-28T09:42:53.428Z,95054.00
2023-04-28T09:43:53.496Z,95050.00
2023-04-28T09:44:53.580Z,95050.00
2023-04-28T09:45:53.680Z,95054.00
2023-04-28T09:46:53.653Z,95054.00
2023-04-28T09:47:53.707Z,95054.00
2023-04-28T09:48:53.692Z,95056.00
2023-04-28T09:49:53.745Z,95058.00
2023-04-28T09:50:53.978Z,95056.00
2023-04-28T09:51:53.937Z,95058.00
2023-04-28T09:52:53.868Z,95060.00
2023-04-28T09:53:53.873Z,95060.00
2023-04-28T09:54:54.056Z,95058.00
2023-04-28T09:55:54.030Z,95056.00
2023-04-28T09:56:54.101Z,95056.00
2023-04-28T09:57:54.518Z,95056.00
2023-04-28T09:58:54.158Z,95054.00
2023-04-28T09:59:54.139Z,95056.00
2023-04-28T10:00:54.276Z,95056.00
2023-04-28T10:01:54.297Z,95056.00
2023-04-28T10:02:54.417Z,95056.00
2023-04-28T10:03:54.403Z,95056.00
2023-04-28T10:04:54.547Z,95056.00
2023-04-28T10:05:54.433Z,95054.00
2023-04-28T10:06:54.435Z,95060.00
2023-04-28T10:07:54.493Z,95056.00
2023-04-28T10:08:54.483Z,95056.00
2023-04-28T10:09:54.562Z,95058.00
2023-04-28T10:10:54.790Z,95056.00
2023-04-28T10:11:54.745Z,95056.00
2023-04-28T10:12:54.786Z,95050.00
2023-04-28T10:13:54.736Z,95048.00
2023-04-28T10:14:54.850Z,95042.00
2023-04-28T10:15:55.078Z,95046.00
2023-04-28T10:16:54.861Z,95044.00
2023-04-28T10:17:54.944Z,95042.00
2023-04-28T10:18:54.979Z,95044.00
2023-04-28T10:19:54.984Z,95044.00
2023-04-28T10:20:55.045Z,95046.00
2023-04-28T10:21:55.060Z,95046.00
2023-04-28T10:22:55.094Z,95048.00
2023-04-28T10:23:55.136Z,95052.00
2023-04-28T10:24:55.223Z,95042.00
2023-04-28T10:25:55.213Z,95040.00
2023-04-28T10:26:55.359Z,95040.00
2023-04-28T10:27:55.269Z,95038.00
2023-04-28T10:28:55.368Z,95040.00
2023-04-28T10:29:55.457Z,95042.00
2023-04-28T10:30:55.546Z,95040.00
2023-04-28T10:31:55.470Z,95040.00
2023-04-28T10:32:55.608Z,95040.00
2023-04-28T10:33:55.522Z,95040.00
2023-04-28T10:34:55.592Z,95040.00
2023-04-28T10:35:55.700Z,95040.00
2023-04-28T10:36:55.639Z,95040.00
2023-04-28T10:37:55.885Z,95038.00
2023-04-28T10:38:55.747Z,95036.00
2023-04-28T10:39:56.100Z,95036.00
2023-04-28T10:40:56.015Z,95036.00
2023-04-28T10:41:55.812Z,95036.00
2023-04-28T10:42:55.850Z,95032.00
2023-04-28T10:43:55.922Z,95032.00
2023-04-28T10:44:55.926Z,95031.00
2023-04-28T10:45:57.545Z,95031.00
2023-04-28T10:46:56.083Z,95032.00
2023-04-28T10:47:56.173Z,95027.00
2023-04-28T10:48:56.059Z,95027.00
2023-04-28T10:49:56.126Z,95029.00
2023-04-28T10:50:56.171Z,95025.00
2023-04-28T10:51:56.186Z,95027.00
2023-04-28T10:52:56.177Z,95025.00
2023-04-28T10:53:56.256Z,95027.00
2023-04-28T10:54:56.268Z,95023.00
2023-04-28T10:55:56.320Z,95027.00
2023-04-28T10:56:56.372Z,95025.00
2023-04-28T10:57:56.408Z,95023.00
2023-04-28T10:58:56.400Z,95021.00
2023-04-28T10:59:56.443Z,95019.00
2023-04-28T11:00:56.531Z,95019.00
2023-04-28T11:01:56.512Z,95017.00
2023-04-28T11:02:56.600Z,95019.00
2023-04-28T11:03:56.739Z,95019.00
2023-04-28T11:04:56.762Z,95021.00
2023-04-28T11:05:56.655Z,95019.00
2023-04-28T11:06:56.645Z,95017.00
2023-04-28T11:07:58.794Z,95015.00
2023-04-28T11:08:56.705Z,95013.00
2023-04-28T11:09:56.721Z,95011.00
2023-04-28T11:10:56.669Z,95013.00
2023-04-28T11:11:56.728Z,95013.00
2023-04-28T11:12:56.794Z,95011.00
2023-04-28T11:13:56.671Z,95009.00
2023-04-28T11:14:56.705Z,95007.00
2023-04-28T11:15:56.662Z,95007.00
2023-04-28T11:16:56.648Z,95005.00
2023-04-28T11:17:56.608Z,95001.00
2023-04-28T11:18:56.591Z,94999.00
2023-04-28T11:19:56.571Z,94997.00
2023-04-28T11:20:57.181Z,94993.00
2023-04-28T11:21:56.615Z,94991.00
2023-04-28T11:22:56.581Z,94989.00
2023-04-28T11:23:56.564Z,94987.00
2023-04-28T11:24:56.532Z,94987.00
2023-04-28T11:25:56.588Z,94984.00
2023-04-28T11:26:57.030Z,94976.00
2023-04-28T11:27:56.620Z,94976.00
2023-04-28T11:28:56.635Z,94976.00
2023-04-28T11:29:56.568Z,94980.00
2023-04-28T11:30:56.510Z,94978.00
2023-04-28T11:31:56.591Z,94978.00
2023-04-28T11:32:56.567Z,94974.00
2023-04-28T11:33:56.502Z,94974.00
2023-04-28T11:34:56.467Z,94972.00
2023-04-28T11:35:56.465Z,94974.00
2023-04-28T11:36:56.460Z,94968.00
2023-04-28T11:37:56.483Z,94968.00
2023-04-28T11:38:56.480Z,94964.00
2023-04-28T11:39:56.428Z,94962.00
2023-04-28T11:40:56.531Z,94968.00
2023-04-28T11:41:56.496Z,94972.00
2023-04-28T11:42:58.326Z,94978.00
2023-04-28T11:43:56.595Z,94982.00
2023-04-28T11:44:56.619Z,94985.00
2023-04-28T11:45:56.660Z,94987.00
2023-04-28T11:46:56.678Z,94989.00